• Join FlightAware (Why Join?)
  • Login
  • US Flag 
10:00AM EDT


 

Airport Tracker/Info


-or-


 

Live Flight TrackerFlight Track Log ✈ SWA157 ✈ 24-Sep-2013 ✈ KOAK - KLAX

Flight Track Log - Related Links

Times and Time Zones

All times are in EDT time to prevent confusion due to time zone crossing. See the SWA157 flight status page for this flight to view local times or setup timezone preferences in your user account.

Time Position Orientation Groundspeed Altitude Reporting Facility
EDT Latitude Longitude Course Direction KTS MPH feet Rate Location/Type
04:07PM 37.7667 -122.3000 310° West 206 237 3,900  Level Northern Cal TRACON
04:08PM 37.7667 -122.3667 270° West 254 292 7,100 3,240 Climbing Northern Cal TRACON
04:08PM 37.7256 -122.4261 229° Southwest 263 303 9,700 1,800 Climbing Oakland Center
04:09PM 37.6514 -122.4594 200° South 296 341 10,400 1,860 Climbing Oakland Center
04:10PM 37.5661 -122.4344 167° South 333 383 13,500 3,120 Climbing Oakland Center
04:12PM 37.4742 -122.3881 158° South 362 417 16,900 3,120 Climbing Oakland Center
04:13PM 37.3975 -122.2908 135° Southeast 393 452 20,000 2,760 Climbing Oakland Center
04:14PM 37.3194 -122.1839 133° Southeast 415 478 22,600 2,460 Climbing Oakland Center
04:15PM 37.2361 -122.0700 133° Southeast 442 509 25,100 2,400 Climbing Oakland Center
04:16PM 37.1494 -121.9522 133° Southeast 460 529 27,600 2,280 Climbing Oakland Center
04:17PM 37.0608 -121.8333 133° Southeast 468 539 29,800 1,920 Climbing Oakland Center
04:18PM 36.9506 -121.6903 134° Southeast 477 549 31,600 1,380 Climbing Oakland Center
04:19PM 36.8544 -121.5614 133° Southeast 500 575 32,700 1,320 Climbing Oakland Center
04:20PM 36.7608 -121.4361 133° Southeast 512 589 34,400 1,560 Climbing Oakland Center
04:21PM 36.6633 -121.3036 133° Southeast 516 594 35,900 1,260 Climbing Oakland Center
04:22PM 36.5658 -121.1747 133° Southeast 514 592 37,000 480 Climbing Oakland Center
04:23PM 36.4683 -121.0467 133° Southeast 512 589 37,000 -60 Level Oakland Center
04:24PM 36.3719 -120.9181 133° Southeast 511 588 36,900  Descending Oakland Center
04:25PM 36.2550 -120.7667 134° Southeast 506 582 37,000  Climbing Oakland Center
04:26PM 36.1586 -120.6400 133° Southeast 506 582 37,000  Level Oakland Center
04:27PM 36.0619 -120.5125 133° Southeast 507 583 37,000  Level Oakland Center
04:28PM 35.9622 -120.3850 134° Southeast 511 588 37,000  Level Oakland Center
04:29PM 35.8656 -120.2589 133° Southeast 507 583 37,000  Level Oakland Center
04:30PM 35.7686 -120.1342 134° Southeast 503 579 37,000  Level Oakland Center
04:31PM 35.6708 -120.0092 134° Southeast 502 578 37,000  Level Oakland Center
04:32PM 35.5633 -119.9050 142° Southeast 495 570 37,000  Level Oakland Center
04:33PM 35.4519 -119.8094 145° Southeast 485 558 37,000  Level Oakland Center
04:34PM 35.3417 -119.7136 145° Southeast 484 557 37,000  Level Oakland Center
04:35PM 35.2300 -119.6181 145° Southeast 486 559 37,000 -660 Level Oakland Center
04:36PM 35.1194 -119.5236 145° Southeast 485 558 35,700 -1,980 Descending Oakland Center
04:37PM 35.0081 -119.4281 145° Southeast 486 559 33,000 -2,820 Descending Oakland Center
04:38PM 34.8933 -119.3303 145° Southeast 495 570 30,000 -2,760 Descending Oakland Center
04:39PM 34.7594 -119.2197 146° Southeast 491 565 27,400 -2,700 Descending Oakland Center
04:40PM 34.6522 -119.1297 145° Southeast 481 554 24,500 -2,820 Descending Oakland Center
04:41PM 34.5211 -119.0186 145° Southeast 440 506 20,700 -2,760 Descending Los Angeles Center
04:43PM 34.4244 -118.9392 146° Southeast 418 481 18,000 -2,400 Descending Los Angeles Center
04:44PM 34.3497 -118.8806 147° Southeast 402 463 15,800 -2,760 Descending Los Angeles Center
04:45PM 34.2061 -118.8258 163° South 385 443 12,400 -2,460 Descending Los Angeles Center
04:46PM 34.1103 -118.7906 163° South 365 420 10,700 -1,200 Descending Los Angeles Center
04:47PM 34.0356 -118.7225 143° Southeast 335 386 10,000 -540 Descending Los Angeles Center
04:48PM 34.0261 -118.6197 96° East 308 354 9,700 -1,020 Descending Los Angeles Center
04:49PM 34.0161 -118.5183 97° East 306 352 7,900 -1,500 Descending Los Angeles Center
04:50PM 34.0136 -118.4297 92° East 286 329 6,600 -1,200 Descending Los Angeles Center
04:51PM 34.0208 -118.3428 84° East 254 292 5,500 -1,380 Descending Los Angeles Center
04:52PM 34.0264 -118.2494 86° East 227 261 3,800 -1,620 Descending Los Angeles Center
04:53PM 33.9858 -118.2636 196° South 178 205 2,200 -780 Descending Los Angeles Center
04:54PM 33.9625 -118.3069 237° Southwest 161 185 2,200 -600 Level Los Angeles Center
04:55PM 33.9575 -118.3525 262° West 139 160 1,000 -960 Descending Los Angeles Center
04:56PM 33.9533 -118.3947 263° West 129 148 300 -720 Descending Los Angeles Center
04:58PM 33.9333 -118.4000 228° Southwest  Level FlightAware Approximate
05:05PM 33.9425 -118.4081 228° Southwest  Level Estimated